Time;durP1;ratioP1;P1;durP2;ratioP2;P2;SDS_P1;SDS_P2;PMS_P1;PMS_P2;Temp;Humidity;BMP_temperature;BMP_pressure;BME280_temperature;BME280_humidity;BME280_pressure;Samples;Min_cycle;Max_cycle;Signal;HPM_P1;HPM_P2
2023/04/12 00:02:13;;;;;;;33.08;17.05;;;;;;;9.85;52.09;99609.25;5088208;28;20464;-63
2023/04/12 00:04:40;;;;;;;41.30;17.25;;;;;;;9.96;50.29;99613.22;5067419;28;20576;-63
2023/04/12 00:07:08;;;;;;;35.17;17.50;;;;;;;10.04;49.42;99607.78;5089324;28;20048;-63
2023/04/12 00:09:36;;;;;;;32.73;16.90;;;;;;;10.08;48.86;99605.03;5066461;28;20079;-62
2023/04/12 00:12:03;;;;;;;32.10;17.15;;;;;;;10.17;48.34;99606.50;5061028;28;20333;-63
2023/04/12 00:14:29;;;;;;;36.47;17.08;;;;;;;10.04;47.91;99587.84;5075041;28;20044;-63
2023/04/12 00:16:55;;;;;;;33.25;17.70;;;;;;;10.15;47.23;99614.28;5075279;28;20048;-63
2023/04/12 00:19:24;;;;;;;26.92;17.25;;;;;;;10.16;47.00;99612.56;5071880;28;20140;-61
2023/04/12 00:21:50;;;;;;;31.85;16.92;;;;;;;10.16;46.24;99612.56;5086900;28;20044;-63
2023/04/12 00:24:17;;;;;;;32.28;17.42;;;;;;;10.15;46.06;99610.88;5090307;28;20042;-63
2023/04/12 00:26:43;;;;;;;31.85;17.67;;;;;;;10.09;46.77;99609.31;5089768;28;20036;-63
2023/04/12 00:29:09;;;;;;;36.08;17.65;;;;;;;10.10;47.26;99612.78;5076839;28;20419;-63
2023/04/12 00:31:35;;;;;;;39.63;17.35;;;;;;;10.12;46.62;99611.81;5073554;28;20550;-63
2023/04/12 00:34:01;;;;;;;37.97;16.85;;;;;;;10.12;47.22;99619.59;5070256;28;20071;-62
2023/04/12 00:36:27;;;;;;;39.65;17.48;;;;;;;9.93;48.58;99586.50;5069720;28;20536;-64
2023/04/12 00:38:53;;;;;;;33.90;18.58;;;;;;;10.07;48.36;99611.13;5085260;28;20594;-64
2023/04/12 00:41:19;;;;;;;34.95;16.73;;;;;;;9.90;48.64;99581.41;5090945;28;20040;-64
2023/04/12 00:43:46;;;;;;;37.65;17.90;;;;;;;10.07;49.52;99613.72;5090106;28;20063;-63
2023/04/12 00:46:12;;;;;;;36.08;17.58;;;;;;;10.04;49.60;99621.63;5084924;28;20089;-63
2023/04/12 00:48:38;;;;;;;37.17;17.13;;;;;;;10.02;48.65;99604.38;5045951;28;20067;-63
2023/04/12 00:51:08;;;;;;;40.90;18.48;;;;;;;9.82;50.55;99586.00;5065518;28;20060;-63
2023/04/12 00:53:34;;;;;;;33.75;17.42;;;;;;;9.75;51.48;99591.41;5042751;28;20062;-63
2023/04/12 00:56:02;;;;;;;50.10;18.13;;;;;;;9.50;51.99;99563.69;5073475;28;20423;-63
2023/04/12 00:58:28;;;;;;;44.40;18.50;;;;;;;9.75;52.01;99619.97;5055920;28;20036;-63
2023/04/12 01:00:54;;;;;;;42.78;17.80;;;;;;;9.70;52.46;99615.81;5091693;28;20043;-63
2023/04/12 01:03:22;;;;;;;39.72;17.90;;;;;;;9.61;52.94;99611.78;5088896;28;20048;-63
2023/04/12 01:06:14;;;;;;;39.75;17.67;;;;;;;9.55;53.80;99611.09;5086669;28;20086;-62
2023/04/12 01:08:57;;;;;;;39.13;17.02;;;;;;;9.51;54.00;99612.09;5070352;28;20044;-62
2023/04/12 01:11:29;;;;;;;38.60;17.15;;;;;;;9.43;53.69;99604.53;5069829;28;20074;-63
2023/04/12 01:14:07;;;;;;;37.38;17.17;;;;;;;9.40;54.07;99609.84;5066713;28;20125;-62
2023/04/12 01:16:55;;;;;;;40.08;18.17;;;;;;;9.36;54.54;99610.84;5062496;28;20047;-62
2023/04/12 01:19:27;;;;;;;41.05;18.85;;;;;;;9.32;54.77;99607.47;5076588;28;20126;-62
2023/04/12 01:21:59;;;;;;;;;;;;;;;9.34;54.36;99610.03;5085953;28;20071;-63
2023/04/12 01:24:31;;;;;;;38.88;17.02;;;;;;;9.25;54.37;99605.97;5089952;28;19988;-63
2023/04/12 01:27:00;;;;;;;43.65;18.23;;;;;;;9.23;54.54;99606.91;5074854;28;20420;-63
2023/04/12 01:29:28;;;;;;;36.17;18.40;;;;;;;9.16;54.89;99595.84;5070457;28;20039;-61
2023/04/12 01:31:58;;;;;;;42.08;19.08;;;;;;;9.18;54.86;99598.41;5070950;28;20040;-63
2023/04/12 01:34:25;;;;;;;38.00;19.75;;;;;;;9.14;55.06;99602.84;5076267;28;20141;-64
2023/04/12 01:36:52;;;;;;;32.45;17.38;;;;;;;9.11;54.46;99600.31;5081330;28;20700;-62
2023/04/12 01:39:18;;;;;;;42.72;19.77;;;;;;;9.12;54.83;99599.44;5056388;28;20036;-62
2023/04/12 01:41:47;;;;;;;37.30;17.92;;;;;;;9.10;54.96;99600.38;5068786;28;20455;-63
2023/04/12 01:44:15;;;;;;;42.90;18.95;;;;;;;9.09;54.67;99590.91;5089205;28;20056;-63
2023/04/12 01:46:42;;;;;;;36.70;17.75;;;;;;;9.07;54.66;99598.72;5084123;28;20044;-62
2023/04/12 01:49:10;;;;;;;41.25;19.17;;;;;;;9.05;54.80;99604.88;5063544;28;20093;-63
2023/04/12 01:51:59;;;;;;;37.20;17.73;;;;;;;9.01;54.88;99598.03;5080741;28;20393;-62
2023/04/12 01:54:27;;;;;;;36.72;18.25;;;;;;;8.81;54.68;99568.38;5069101;28;20040;-62
2023/04/12 01:56:59;;;;;;;42.33;18.77;;;;;;;8.84;55.04;99575.22;5069140;28;20059;-63
2023/04/12 01:59:27;;;;;;;39.13;18.67;;;;;;;8.91;55.09;99592.28;5076849;28;20149;-63
2023/04/12 02:01:53;;;;;;;40.28;18.55;;;;;;;8.89;54.95;99596.69;5072299;28;20044;-62
2023/04/12 02:04:20;;;;;;;39.08;17.25;;;;;;;8.88;54.90;99582.00;5090160;28;20035;-63
2023/04/12 02:06:46;;;;;;;38.92;18.80;;;;;;;8.87;54.67;99588.09;5085780;28;20149;-64
2023/04/12 02:09:12;;;;;;;40.30;18.67;;;;;;;8.56;54.94;99531.09;5068421;28;20104;-63
2023/04/12 02:11:38;;;;;;;34.97;17.98;;;;;;;8.69;54.36;99563.53;5068708;28;20048;-62
2023/04/12 02:14:04;;;;;;;42.67;18.67;;;;;;;8.81;54.74;99576.16;5071630;28;20044;-62
2023/04/12 02:16:31;;;;;;;36.03;18.50;;;;;;;8.73;54.53;99567.75;5088176;28;20044;-62
2023/04/12 02:18:57;;;;;;;37.50;19.17;;;;;;;8.78;54.88;99586.63;5072047;28;20127;-62
2023/04/12 02:21:25;;;;;;;41.08;18.42;;;;;;;8.74;54.53;99573.81;5081041;28;20044;-62
2023/04/12 02:23:51;;;;;;;42.80;18.45;;;;;;;8.74;54.45;99577.22;5070226;28;20036;-62
2023/04/12 02:26:16;;;;;;;40.88;18.08;;;;;;;8.73;54.39;99575.53;5081014;28;20040;-63
2023/04/12 02:28:45;;;;;;;33.88;18.02;;;;;;;8.75;54.34;99570.28;5086809;28;20130;-61
2023/04/12 02:31:14;;;;;;;35.88;17.77;;;;;;;8.72;54.95;99579.00;5075930;28;20031;-62
2023/04/12 02:33:41;;;;;;;31.15;17.50;;;;;;;8.70;55.04;99579.94;5054771;28;20036;-61
2023/04/12 02:36:10;;;;;;;35.67;18.95;;;;;;;8.68;55.39;99576.56;5068021;28;20040;-62
2023/04/12 02:38:36;;;;;;;36.88;18.60;;;;;;;8.63;55.71;99570.66;5051580;28;20037;-61
2023/04/12 02:41:04;;;;;;;43.15;18.63;;;;;;;8.56;55.70;99569.13;5051112;28;20075;-62
2023/04/12 02:43:32;;;;;;;40.47;17.38;;;;;;;8.60;56.17;99587.13;5073296;28;20113;-62
2023/04/12 02:46:02;;;;;;;39.60;18.25;;;;;;;8.58;56.00;99575.13;5076894;28;20063;-63
2023/04/12 02:48:34;;;;;;;35.80;19.73;;;;;;;8.56;56.02;99577.75;5072195;28;20097;-62
2023/04/12 02:51:02;;;;;;;43.22;20.10;;;;;;;8.56;56.14;99584.66;5069904;28;20048;-61
2023/04/12 02:53:30;;;;;;;47.40;19.35;;;;;;;8.22;56.33;99527.72;5061869;28;20026;-63
2023/04/12 02:56:12;;;;;;;48.03;19.02;;;;;;;8.56;56.73;99577.75;5087060;28;20043;-62
2023/04/12 02:58:38;;;;;;;34.13;17.52;;;;;;;8.58;56.75;99586.34;5088000;28;20062;-62
2023/04/12 03:01:07;;;;;;;39.05;18.48;;;;;;;8.61;56.07;99590.56;5051095;28;20507;-63
2023/04/12 03:03:47;;;;;;;39.33;18.98;;;;;;;8.65;56.17;99592.19;5067525;28;20569;-62
2023/04/12 03:06:30;;;;;;;38.95;19.00;;;;;;;8.67;55.73;99586.06;5068039;28;20044;-63
2023/04/12 03:08:58;;;;;;;38.65;19.00;;;;;;;8.65;56.05;99576.63;5066828;28;20050;-63
2023/04/12 03:11:24;;;;;;;47.13;19.30;;;;;;;8.71;56.04;99585.09;5068795;28;20128;-62
2023/04/12 03:13:51;;;;;;;44.95;20.35;;;;;;;8.68;56.05;99576.56;5077202;28;20046;-63
2023/04/12 03:16:23;;;;;;;49.83;19.83;;;;;;;8.78;55.83;99590.94;5078864;28;20448;-61
2023/04/12 03:18:55;;;;;;;48.25;18.80;;;;;;;8.80;55.95;99591.75;5072129;28;20098;-63
2023/04/12 03:21:24;;;;;;;35.65;19.08;;;;;;;8.84;55.81;99598.56;5067843;28;20135;-63
2023/04/12 03:24:03;;;;;;;;;;;;;;;8.89;55.82;99594.09;5076068;28;20136;-63
2023/04/12 03:26:30;;;;;;;35.47;17.95;;;;;;;8.83;55.64;99586.50;5098468;28;19923;-62
2023/04/12 03:29:07;;;;;;;45.72;17.80;;;;;;;8.94;55.55;99597.41;5081519;28;20094;-63
2023/04/12 03:31:35;;;;;;;37.25;19.25;;;;;;;9.02;55.39;99595.41;5087395;28;20479;-63
2023/04/12 03:34:07;;;;;;;44.72;19.35;;;;;;;9.08;55.35;99599.56;5075276;28;20067;-64
2023/04/12 03:36:36;;;;;;;48.55;19.33;;;;;;;9.13;55.28;99597.69;5080674;28;20054;-63
2023/04/12 03:39:15;;;;;;;45.55;18.70;;;;;;;9.20;54.97;99600.06;5078383;28;20040;-64
2023/04/12 03:41:42;;;;;;;44.72;19.77;;;;;;;9.24;54.76;99598.22;5075664;28;20040;-63
2023/04/12 03:44:08;;;;;;;41.45;19.88;;;;;;;9.31;54.95;99602.34;5069167;28;20581;-63
2023/04/12 03:46:35;;;;;;;40.38;19.38;;;;;;;9.34;55.17;99597.91;5069962;28;20471;-63
2023/04/12 03:49:05;;;;;;;44.53;19.23;;;;;;;9.44;54.70;99605.38;5081530;28;20055;-64
2023/04/12 03:51:32;;;;;;;51.15;20.17;;;;;;;9.34;54.86;99576.28;5085204;28;20043;-63
2023/04/12 03:54:03;;;;;;;53.88;21.30;;;;;;;9.55;55.09;99611.09;5068191;28;20035;-61
2023/04/12 03:56:38;;;;;;;45.45;19.92;;;;;;;9.61;54.54;99601.38;5103158;28;20035;-63
2023/04/12 03:59:09;;;;;;;44.92;20.17;;;;;;;9.70;54.60;99605.41;5078727;28;20140;-63
2023/04/12 04:01:37;;;;;;;60.03;20.40;;;;;;;9.63;54.43;99585.78;5067630;28;20032;-62
2023/04/12 04:04:05;;;;;;;44.17;20.73;;;;;;;9.77;54.23;99605.19;5066282;28;20090;-63
2023/04/12 04:06:33;;;;;;;53.58;21.48;;;;;;;9.65;54.27;99576.16;5063893;28;20028;-63
2023/04/12 04:08:59;;;;;;;62.00;23.33;;;;;;;9.90;53.86;99600.44;5081904;28;20071;-64
2023/04/12 04:11:26;;;;;;;56.53;21.88;;;;;;;9.99;54.51;99602.75;5068591;28;20033;-64
2023/04/12 04:13:59;;;;;;;58.88;20.20;;;;;;;9.99;53.98;99594.94;5067417;28;20048;-62
2023/04/12 04:16:25;;;;;;;56.47;21.83;;;;;;;10.11;54.08;99604.06;5079381;28;20431;-61
2023/04/12 04:18:53;;;;;;;49.13;20.25;;;;;;;10.23;53.86;99603.69;5069665;28;20564;-63
2023/04/12 04:21:21;;;;;;;48.45;21.35;;;;;;;10.31;53.58;99606.03;5067841;28;20041;-64
2023/04/12 04:23:50;;;;;;;45.40;20.48;;;;;;;10.27;53.66;99581.88;5064371;28;20042;-61
2023/04/12 04:26:17;;;;;;;49.47;21.50;;;;;;;10.57;52.93;99612.00;5078101;28;20052;-64
2023/04/12 04:28:51;;;;;;;54.15;23.17;;;;;;;10.64;53.31;99607.44;5063593;28;20527;-64
2023/04/12 04:31:21;;;;;;;54.13;21.25;;;;;;;10.52;52.97;99576.69;5067577;28;20055;-64
2023/04/12 04:33:49;;;;;;;49.28;20.58;;;;;;;10.81;53.33;99604.22;5085906;28;20040;-63
2023/04/12 04:36:17;;;;;;;56.72;22.50;;;;;;;10.87;52.28;99604.84;5069574;28;20165;-64
2023/04/12 04:38:48;;;;;;;58.58;22.88;;;;;;;11.03;52.45;99615.53;5069646;28;20047;-63
2023/04/12 04:41:25;;;;;;;54.28;22.77;;;;;;;10.93;52.19;99580.38;5062085;28;20400;-63
2023/04/12 04:43:59;;;;;;;53.90;22.70;;;;;;;11.04;51.86;99578.22;5085643;28;20134;-63
2023/04/12 04:46:29;;;;;;;55.40;22.58;;;;;;;11.33;51.00;99611.78;5080367;28;20140;-62
2023/04/12 04:48:57;;;;;;;58.95;22.88;;;;;;;11.41;50.98;99608.84;5074240;28;20113;-69
2023/04/12 04:51:24;;;;;;;61.13;24.42;;;;;;;11.47;51.07;99613.84;5053104;28;20086;-63
2023/04/12 04:53:52;;;;;;;53.92;22.08;;;;;;;11.53;51.28;99611.00;5068268;28;20101;-63
2023/04/12 04:56:18;;;;;;;61.42;23.80;;;;;;;11.58;50.85;99605.59;5067917;28;20075;-63
2023/04/12 04:58:49;;;;;;;70.38;25.35;;;;;;;11.69;50.76;99598.22;5081575;28;20044;-64
2023/04/12 05:01:15;;;;;;;64.85;23.38;;;;;;;11.83;51.10;99607.19;5081763;28;20047;-60
2023/04/12 05:03:43;;;;;;;58.00;23.08;;;;;;;11.94;50.21;99614.56;5071076;28;20130;-57
2023/04/12 05:06:10;;;;;;;57.38;24.20;;;;;;;12.15;49.95;99618.03;5079849;28;20097;-62
2023/04/12 05:08:37;;;;;;;60.30;24.95;;;;;;;12.30;49.65;99615.63;5077465;28;20036;-61
2023/04/12 05:11:04;;;;;;;68.43;24.08;;;;;;;12.41;48.33;99616.94;5068669;28;20469;-62
2023/04/12 05:13:30;;;;;;;52.42;22.95;;;;;;;12.52;47.58;99617.34;5088969;28;20031;-62
2023/04/12 05:15:56;;;;;;;45.15;23.48;;;;;;;12.65;46.83;99623.72;5087470;28;20431;-63
2023/04/12 05:18:22;;;;;;;57.03;23.92;;;;;;;12.77;46.37;99627.56;5077206;28;20044;-63
2023/04/12 05:20:48;;;;;;;46.80;22.58;;;;;;;12.97;46.04;99624.91;5078267;28;20127;-61
2023/04/12 05:23:15;;;;;;;46.50;22.05;;;;;;;13.15;45.26;99621.47;5079110;28;20061;-63
2023/04/12 05:25:45;;;;;;;38.95;20.83;;;;;;;13.28;44.19;99630.47;5073040;28;20036;-63
2023/04/12 05:28:13;;;;;;;46.90;21.75;;;;;;;13.44;44.00;99628.84;5074619;28;20072;-63
2023/04/12 05:30:40;;;;;;;42.97;20.48;;;;;;;13.60;43.43;99621.13;5082690;28;20040;-63
2023/04/12 05:33:08;;;;;;;50.33;19.88;;;;;;;13.69;42.47;99625.03;5082691;28;20048;-62
2023/04/12 05:35:37;;;;;;;35.33;18.02;;;;;;;13.77;41.63;99626.38;5079133;28;20055;-63
2023/04/12 05:38:03;;;;;;;44.35;18.38;;;;;;;13.79;40.79;99616.69;5062625;28;20049;-63
2023/04/12 05:40:32;;;;;;;40.10;18.95;;;;;;;13.88;40.29;99613.63;5084292;28;20040;-62
2023/04/12 05:42:58;;;;;;;32.97;16.65;;;;;;;13.70;39.89;99562.28;5082125;28;20048;-64
2023/04/12 05:45:26;;;;;;;39.53;17.13;;;;;;;14.07;39.82;99604.88;5084945;28;20423;-66
2023/04/12 05:47:54;;;;;;;36.58;17.75;;;;;;;14.15;38.90;99614.03;5077026;28;20044;-62
2023/04/12 05:50:20;;;;;;;43.08;17.55;;;;;;;14.25;38.73;99617.03;5077423;28;20087;-65
2023/04/12 05:52:47;;;;;;;33.90;17.33;;;;;;;14.32;38.26;99621.88;5077412;28;20074;-64
2023/04/12 05:55:15;;;;;;;36.38;17.27;;;;;;;14.43;37.72;99624.00;5082364;28;20052;-62
2023/04/12 05:57:43;;;;;;;41.42;17.10;;;;;;;14.63;37.35;99613.34;5092248;28;20060;-64
2023/04/12 06:00:13;;;;;;;26.30;13.48;;;;;;;14.90;37.22;99618.91;5085117;28;20035;-63
2023/04/12 06:02:39;;;;;;;27.40;14.00;;;;;;;14.94;35.78;99630.91;5080928;28;20615;-60
2023/04/12 06:05:07;;;;;;;28.42;15.55;;;;;;;14.92;35.46;99582.16;5077976;28;20032;-65
2023/04/12 06:07:34;;;;;;;27.75;14.45;;;;;;;15.50;34.25;99619.97;5061066;28;20536;-65
2023/04/12 06:10:00;;;;;;;21.52;14.57;;;;;;;15.87;33.39;99625.78;5083030;28;20032;-65
2023/04/12 06:12:26;;;;;;;30.67;14.52;;;;;;;16.44;32.92;99627.66;5081918;28;20069;-65
2023/04/12 06:14:52;;;;;;;24.38;12.73;;;;;;;17.11;31.68;99621.00;5068704;28;20036;-63
2023/04/12 06:17:18;;;;;;;29.67;13.75;;;;;;;17.75;30.88;99598.50;5087193;28;20085;-63
2023/04/12 06:19:44;;;;;;;23.30;13.32;;;;;;;18.59;30.25;99618.31;5074521;28;20097;-64
2023/04/12 06:22:10;;;;;;;27.00;14.27;;;;;;;19.40;28.77;99626.66;5076175;28;20040;-64
2023/04/12 06:24:38;;;;;;;30.42;15.13;;;;;;;19.94;27.99;99618.34;5067647;28;20074;-64
2023/04/12 06:27:05;;;;;;;33.00;15.10;;;;;;;20.39;27.29;99618.53;5074243;28;20122;-63
2023/04/12 06:29:31;;;;;;;27.67;16.00;;;;;;;21.19;26.90;99617.59;5079648;28;20063;-64
2023/04/12 06:31:58;;;;;;;26.80;15.82;;;;;;;21.94;26.01;99623.81;5078528;28;20128;-64
2023/04/12 06:34:27;;;;;;;35.05;15.95;;;;;;;22.36;25.31;99616.75;5068102;28;20077;-62
2023/04/12 06:36:59;;;;;;;27.08;15.25;;;;;;;23.34;24.50;99618.97;5057069;28;20044;-63
2023/04/12 06:39:25;;;;;;;26.25;16.27;;;;;;;24.19;23.53;99611.28;5070696;28;20090;-63
2023/04/12 06:41:56;;;;;;;29.48;16.02;;;;;;;24.66;22.96;99593.56;5073890;28;20040;-63
2023/04/12 06:44:22;;;;;;;29.63;15.73;;;;;;;24.73;21.83;99586.72;5056019;28;20091;-62
2023/04/12 06:46:48;;;;;;;28.30;15.95;;;;;;;25.07;21.72;99590.53;5077265;28;20543;-63
2023/04/12 06:49:14;;;;;;;26.70;16.02;;;;;;;26.21;21.17;99605.06;5080824;28;20040;-63
2023/04/12 06:51:40;;;;;;;25.55;15.95;;;;;;;26.69;20.41;99602.81;5087445;28;20096;-63
2023/04/12 06:54:06;;;;;;;38.30;17.25;;;;;;;26.85;19.89;99588.72;5079027;28;20036;-63
2023/04/12 06:56:32;;;;;;;32.67;16.20;;;;;;;27.60;19.34;99606.59;5068702;28;20078;-63
2023/04/12 06:58:58;;;;;;;25.23;15.85;;;;;;;27.95;18.83;99597.47;5079707;28;20126;-63
2023/04/12 07:01:24;;;;;;;27.20;15.48;;;;;;;28.53;18.62;99610.69;5085985;28;20040;-64
2023/04/12 07:03:50;;;;;;;29.63;16.17;;;;;;;29.22;17.71;99595.81;5082997;28;20050;-64
2023/04/12 07:06:16;;;;;;;29.20;15.07;;;;;;;29.68;17.57;99591.41;5091298;28;20127;-62
2023/04/12 07:08:42;;;;;;;28.75;15.15;;;;;;;30.57;16.90;99614.06;5071378;28;20434;-62
2023/04/12 07:11:08;;;;;;;27.33;15.80;;;;;;;31.21;16.75;99609.03;5071081;28;20056;-63
2023/04/12 07:13:33;;;;;;;26.33;15.60;;;;;;;31.73;16.15;99604.31;5066966;28;20075;-65
2023/04/12 07:15:59;;;;;;;27.88;16.90;;;;;;;31.93;15.23;99610.72;5070908;28;20552;-64
2023/04/12 07:18:25;;;;;;;24.30;15.38;;;;;;;31.30;15.28;99611.41;5081697;28;20036;-63
2023/04/12 07:20:54;;;;;;;28.25;15.85;;;;;;;31.86;15.00;99609.00;5076354;28;20037;-63
2023/04/12 07:23:20;;;;;;;27.98;16.13;;;;;;;32.26;14.77;99605.69;5081512;28;20081;-64
2023/04/12 07:25:46;;;;;;;28.40;16.50;;;;;;;32.22;14.40;99577.50;5080797;28;20044;-64
2023/04/12 07:28:11;;;;;;;21.38;16.42;;;;;;;32.90;13.82;99610.97;5075914;28;20032;-63
2023/04/12 07:30:38;;;;;;;24.55;15.65;;;;;;;33.16;13.55;99611.16;5078859;28;20059;-64
2023/04/12 07:33:04;;;;;;;21.80;16.42;;;;;;;32.63;13.50;99598.31;5066910;28;20259;-65
2023/04/12 07:35:33;;;;;;;22.42;16.58;;;;;;;32.35;13.82;99603.69;5081860;28;20039;-64
2023/04/12 07:38:00;;;;;;;24.90;15.45;;;;;;;32.43;13.70;99611.63;5077393;28;20040;-63
2023/04/12 07:40:26;;;;;;;39.20;16.20;;;;;;;32.91;13.36;99609.09;5082747;28;20074;-63
2023/04/12 07:42:52;;;;;;;28.45;15.75;;;;;;;33.75;12.97;99599.78;5081091;28;20036;-63
2023/04/12 07:45:18;;;;;;;29.00;16.60;;;;;;;34.52;12.26;99607.34;5093574;28;20046;-64
2023/04/12 07:47:45;;;;;;;21.98;14.93;;;;;;;35.05;11.98;99612.69;5081491;28;20036;-64
2023/04/12 07:50:10;;;;;;;24.75;15.63;;;;;;;34.82;11.86;99597.78;5091139;28;20043;-63
2023/04/12 07:52:36;;;;;;;27.67;15.60;;;;;;;34.36;11.83;99594.25;5072597;28;20048;-63
2023/04/12 07:55:02;;;;;;;25.00;15.68;;;;;;;34.58;11.70;99579.50;5077621;28;20062;-62
2023/04/12 07:57:28;;;;;;;21.75;14.63;;;;;;;35.35;11.71;99573.28;5077537;28;20039;-64
2023/04/12 07:59:54;;;;;;;22.70;15.23;;;;;;;36.16;11.42;99607.84;5064516;28;20507;-63
2023/04/12 08:02:26;;;;;;;22.55;14.38;;;;;;;36.61;10.98;99603.91;5075787;28;20476;-63
2023/04/12 08:04:55;;;;;;;22.55;14.55;;;;;;;36.70;10.91;99593.63;5088375;28;20040;-63
2023/04/12 08:07:21;;;;;;;18.45;13.93;;;;;;;36.42;10.91;99591.38;5074241;28;20040;-63
2023/04/12 08:09:48;;;;;;;20.30;15.07;;;;;;;35.58;11.20;99589.00;5084444;28;20044;-64
2023/04/12 08:12:14;;;;;;;19.80;14.65;;;;;;;35.79;10.70;99571.63;5092814;28;20577;-64
2023/04/12 08:14:40;;;;;;;20.42;14.45;;;;;;;36.53;10.42;99580.63;5072428;28;20028;-64
2023/04/12 08:17:06;;;;;;;24.48;13.90;;;;;;;37.11;10.36;99579.47;5078397;28;20454;-63
2023/04/12 08:19:32;;;;;;;18.35;11.70;;;;;;;37.59;9.73;99593.88;5069484;28;20101;-62
2023/04/12 08:21:58;;;;;;;10.50;9.30;;;;;;;36.39;9.85;99579.09;5073792;28;20482;-64
2023/04/12 08:24:24;;;;;;;17.40;12.18;;;;;;;35.27;10.66;99581.66;5060195;28;20080;-61
2023/04/12 08:26:50;;;;;;;15.07;12.88;;;;;;;34.81;10.83;99579.06;5071128;28;20131;-64
2023/04/12 08:29:17;;;;;;;15.02;12.13;;;;;;;34.84;10.92;99574.09;5084726;28;20047;-62
2023/04/12 08:31:43;;;;;;;20.58;16.17;;;;;;;35.97;10.95;99582.53;5070428;28;20044;-64
2023/04/12 08:34:09;;;;;;;20.13;14.35;;;;;;;36.60;10.10;99582.44;5079369;28;20043;-62
2023/04/12 08:36:35;;;;;;;19.63;14.23;;;;;;;36.72;10.38;99570.69;5059282;28;20100;-66
2023/04/12 08:39:01;;;;;;;12.98;11.32;;;;;;;36.88;10.33;99574.69;5077727;28;20043;-63
2023/04/12 08:41:27;;;;;;;24.73;12.25;;;;;;;37.02;9.89;99565.31;5075924;28;20063;-64
2023/04/12 08:43:56;;;;;;;20.35;11.18;;;;;;;35.47;10.70;99549.09;5076398;28;20052;-63
2023/04/12 08:46:22;;;;;;;20.40;11.93;;;;;;;36.01;10.67;99575.66;5076545;28;20075;-64
2023/04/12 08:48:52;;;;;;;10.88;7.95;;;;;;;34.86;10.59;99571.97;5066946;28;20051;-64
2023/04/12 08:51:20;;;;;;;11.25;8.20;;;;;;;33.70;11.41;99569.06;5078225;28;20039;-63
2023/04/12 08:53:46;;;;;;;13.93;10.23;;;;;;;34.59;11.00;99577.63;5076004;28;20185;-62
2023/04/12 08:56:13;;;;;;;11.65;9.52;;;;;;;35.77;10.64;99577.25;5054089;28;20302;-64
2023/04/12 08:58:41;;;;;;;11.27;9.13;;;;;;;36.74;9.93;99565.88;5072674;28;20036;-64
2023/04/12 09:01:12;;;;;;;13.55;10.25;;;;;;;37.27;9.84;99576.09;5066458;28;20037;-64
2023/04/12 09:03:39;;;;;;;13.70;9.95;;;;;;;35.72;9.98;99562.72;5078107;28;20044;-64
2023/04/12 09:06:05;;;;;;;13.23;8.27;;;;;;;33.92;10.54;99544.38;5078504;28;20031;-63
2023/04/12 09:08:31;;;;;;;11.50;10.10;;;;;;;31.05;12.20;99554.50;5095304;27;20157;-66
2023/04/12 09:10:57;;;;;;;16.67;9.27;;;;;;;29.00;13.54;99561.75;5076372;28;20044;-64
2023/04/12 09:13:34;;;;;;;14.18;9.35;;;;;;;30.10;13.05;99539.16;5078670;28;20094;-64
2023/04/12 09:16:00;;;;;;;18.85;9.73;;;;;;;32.24;12.12;99528.91;5088766;28;20127;-64
2023/04/12 09:18:26;;;;;;;13.35;9.50;;;;;;;34.08;11.52;99518.03;5072666;28;20036;-65
2023/04/12 09:21:06;;;;;;;17.52;10.48;;;;;;;35.30;11.15;99531.72;5076135;28;20094;-63
2023/04/12 09:23:35;;;;;;;24.17;11.55;;;;;;;35.29;10.91;99536.28;5082402;28;20126;-64
2023/04/12 09:26:01;;;;;;;;;;;;;;;33.08;11.90;99541.22;5068005;28;20117;-62
2023/04/12 09:28:28;;;;;;;16.42;10.38;;;;;;;31.51;12.76;99530.84;5080680;28;20392;-63
2023/04/12 09:30:56;;;;;;;13.60;11.00;;;;;;;30.27;12.95;99521.91;5086252;28;20063;-65
2023/04/12 09:33:42;;;;;;;14.05;9.85;;;;;;;30.88;12.74;99522.63;5084744;28;20045;-64
2023/04/12 09:36:12;;;;;;;16.60;9.90;;;;;;;32.34;11.83;99535.59;5084778;28;20063;-62
2023/04/12 09:38:38;;;;;;;17.13;10.20;;;;;;;32.99;11.40;99528.94;5095079;27;20130;-64
2023/04/12 09:41:17;;;;;;;18.50;10.48;;;;;;;33.34;11.52;99531.63;5069654;28;20595;-65
2023/04/12 09:43:43;;;;;;;19.88;10.50;;;;;;;33.13;11.77;99522.56;5080234;28;20056;-63
2023/04/12 09:46:11;;;;;;;16.67;10.65;;;;;;;33.63;11.48;99520.47;5076938;28;20504;-63
2023/04/12 09:48:41;;;;;;;11.63;9.90;;;;;;;34.30;10.94;99506.00;5069906;28;20050;-62
2023/04/12 09:51:07;;;;;;;15.75;11.00;;;;;;;35.57;10.67;99515.13;5086232;28;20141;-63
2023/04/12 09:53:34;;;;;;;13.57;10.80;;;;;;;36.63;10.53;99525.13;5079511;28;20041;-61
2023/04/12 09:56:05;;;;;;;16.80;10.27;;;;;;;35.95;10.07;99506.97;5076670;28;20040;-61
2023/04/12 09:58:32;;;;;;;15.57;9.90;;;;;;;36.25;10.30;99519.84;5088054;28;20123;-63
2023/04/12 10:01:00;;;;;;;15.02;9.98;;;;;;;36.23;10.08;99516.53;5077085;28;20058;-63
2023/04/12 10:03:26;;;;;;;10.98;9.00;;;;;;;35.77;9.67;99516.88;5087865;27;20532;-62
2023/04/12 10:05:54;;;;;;;9.50;8.45;;;;;;;34.67;10.17;99516.09;5096415;28;20126;-63
2023/04/12 10:08:21;;;;;;;9.07;8.18;;;;;;;33.66;10.56;99513.81;5091243;27;20044;-62
2023/04/12 10:10:48;;;;;;;11.23;8.30;;;;;;;33.27;10.89;99512.72;5072090;28;20036;-64
2023/04/12 10:13:14;;;;;;;17.45;8.32;;;;;;;32.66;11.34;99504.53;5078945;28;20050;-60
2023/04/12 10:15:41;;;;;;;13.48;8.63;;;;;;;34.21;10.94;99502.69;5065306;28;20514;-67
2023/04/12 10:18:10;;;;;;;9.73;7.90;;;;;;;35.50;10.44;99492.69;5095035;27;20131;-60
2023/04/12 10:20:39;;;;;;;11.68;8.35;;;;;;;35.87;9.99;99492.88;5072946;28;20527;-61
2023/04/12 10:23:05;;;;;;;11.07;8.05;;;;;;;36.16;9.87;99472.47;5064446;28;20426;-61
2023/04/12 10:25:31;;;;;;;13.73;8.38;;;;;;;36.99;9.66;99502.63;5089278;28;20586;-61
2023/04/12 10:28:12;;;;;;;11.65;9.43;;;;;;;36.78;9.45;99501.19;5084640;28;20462;-62
2023/04/12 10:30:38;;;;;;;11.93;8.60;;;;;;;36.02;9.37;99487.94;5078695;28;20047;-60
2023/04/12 10:33:04;;;;;;;8.63;7.32;;;;;;;36.60;9.45;99487.59;5069388;28;20044;-61
2023/04/12 10:36:07;;;;;;;10.88;8.45;;;;;;;37.33;9.13;99478.38;5070160;28;20040;-60
2023/04/12 10:38:46;;;;;;;9.48;8.32;;;;;;;38.00;8.87;99489.09;5073065;28;20043;-62
2023/04/12 10:41:21;;;;;;;9.90;8.38;;;;;;;38.12;8.84;99484.47;5076443;28;20059;-62
2023/04/12 10:43:48;;;;;;;12.20;8.30;;;;;;;38.19;8.69;99487.91;5088838;27;20056;-60
2023/04/12 10:46:39;;;;;;;10.68;8.13;;;;;;;37.59;8.76;99498.88;5074050;28;20039;-59
2023/04/12 10:49:09;;;;;;;12.90;8.95;;;;;;;36.21;9.61;99462.63;5076790;28;20081;-63
2023/04/12 10:51:35;;;;;;;9.70;8.70;;;;;;;37.17;9.31;99487.16;5072534;28;20538;-60
2023/04/12 10:54:09;;;;;;;9.60;8.60;;;;;;;38.02;8.92;99473.38;5078289;28;20073;-56
2023/04/12 10:56:37;;;;;;;11.90;8.10;;;;;;;38.53;8.58;99472.66;5076298;28;20507;-61
2023/04/12 10:59:21;;;;;;;13.07;8.63;;;;;;;37.23;8.68;99472.69;5076106;28;20043;-60
2023/04/12 11:02:06;;;;;;;11.00;8.27;;;;;;;37.90;8.87;99480.66;5077619;28;20027;-61
2023/04/12 11:04:31;;;;;;;8.77;7.38;;;;;;;36.80;8.59;99467.38;5074807;28;20044;-62
2023/04/12 11:07:11;;;;;;;15.38;8.10;;;;;;;35.61;9.10;99434.38;5074951;28;20040;-61
2023/04/12 11:10:14;;;;;;;10.57;7.65;;;;;;;36.23;9.44;99457.78;5055296;28;20059;-61
2023/04/12 11:12:41;;;;;;;9.07;7.90;;;;;;;37.10;8.86;99450.38;5072145;28;20074;-61
2023/04/12 11:15:11;;;;;;;9.82;7.80;;;;;;;37.75;8.50;99445.81;5072513;28;20040;-61
2023/04/12 11:18:05;;;;;;;9.75;8.18;;;;;;;35.66;9.07;99448.06;5094666;28;20515;-60
2023/04/12 11:20:32;;;;;;;10.65;8.10;;;;;;;35.34;9.21;99422.06;5089249;28;20032;-59
2023/04/12 11:23:00;;;;;;;13.65;7.90;;;;;;;36.08;9.00;99397.75;5068080;28;20040;-62
2023/04/12 11:25:27;;;;;;;12.93;7.68;;;;;;;36.83;8.60;99434.41;5079532;28;20522;-61
2023/04/12 11:27:53;;;;;;;;;;;;;;;37.05;8.75;99425.78;5069188;28;20040;-60
2023/04/12 11:30:20;;;;;;;12.20;7.60;;;;;;;37.64;8.72;99417.59;5080432;28;19926;-60
2023/04/12 11:32:46;;;;;;;9.30;7.35;;;;;;;38.17;8.43;99420.25;5078083;28;20051;-60